Aérodrome :
LOGIN :

S'inscrire | Disclaimer

   EN    FR    IT 

 










Légende :    VFR   VFR Marginal   IFR   IFR Intensif   IFR Très Intensif
Visi : 
Plafond : 
>= 8 km
>= 3000ft
5 à 8 km
1000 à 3000 ft
1500m à 5 km
500 à 1000 ft
800 à 1500m
200 à 500 ft
< 800m
< 200 ft
Symboles :   Orages  Brouillard  Fortes neiges  Fortes précipitations  Vent > 20 kt
SIGMETs :   Divers  Orages  Givrage  Turbulence  Onde Orograph.  Cendres Volcan.






- Altitude de l'aérodrome : 297 ft
- Code IATA : UIP


LFRQ - Quimper Pluguffan

DERNIER METAR :
  • 150300Z AUTO 28011KT 9999 FEW036 BKN043 OVC049 08/02 Q1000

METARs EXPIRÉS :
  • 150230Z AUTO 29012KT 9999 FEW034 BKN041 BKN048 08/03 Q1000
  • 150200Z AUTO 27013KT 9999 BKN034 BKN042 OVC054 09/04 Q1000
  • 150130Z AUTO 26016KT 9999 SCT035/// BKN042/// BKN050/// ///CB 10/04 Q0999
  • 150100Z AUTO 26012KT 220V280 9999 FEW037 BKN044 BKN076 09/05 Q0999
  • 150030Z AUTO 27013KT 9999 FEW019 BKN052 BKN062 09/05 Q0999

TAF AMD TAF LFRQ
Valide du 14 à 20h jusqu'au 15 à 18h UTC


142008Z 1420/1518 23012KT 9999 FEW020 BKN030
TEMPO 1420/1518 23020G30KT 4000 SHRA BKN006 SCT010CB



MET'MAP, la Météo Aéronautique d'un coup d'oeil ! - Copyright ORBIFLY Décembre 2007 - Disclaimer

ORBIFLY MET'MAP TEAM :

Programmation & Développement : Alexandra Zaïnal
Sur une idée originale de : Baudouin d'Aumeries
Assistance à la programmation : Marc-Olivier Méhu
Soutien technique & logistique : Manuel Goepfert

Contact : metmap@orbifly.com




SOURCES & CREDITS :

   NOAA